Time;durP1;ratioP1;P1;durP2;ratioP2;P2;SDS_P1;SDS_P2;PMS_P1;PMS_P2;Temp;Humidity;BMP_temperature;BMP_pressure;BME280_temperature;BME280_humidity;BME280_pressure;Samples;Min_cycle;Max_cycle;Signal;HPM_P1;HPM_P2
2021/03/20 00:00:24;;;;;;;9.60;7.28;;;0.60;99.90;;;;;;5004529;28;20026;-75
2021/03/20 00:02:50;;;;;;;8.83;7.37;;;0.60;99.90;;;;;;5001529;28;20026;-76
2021/03/20 00:05:17;;;;;;;11.07;8.48;;;0.60;99.90;;;;;;5000658;28;20061;-75
2021/03/20 00:07:43;;;;;;;8.85;7.25;;;0.50;99.90;;;;;;5008454;28;20033;-75
2021/03/20 00:10:12;;;;;;;10.23;6.95;;;0.50;99.90;;;;;;5016461;28;20061;-76
2021/03/20 00:12:38;;;;;;;13.07;8.27;;;0.60;99.90;;;;;;4997988;28;20502;-76
2021/03/20 00:15:08;;;;;;;9.70;7.43;;;0.50;99.90;;;;;;4995302;28;20395;-75
2021/03/20 00:17:34;;;;;;;14.40;7.83;;;0.50;99.90;;;;;;4996689;28;20513;-74
2021/03/20 00:20:01;;;;;;;12.82;7.93;;;0.50;99.90;;;;;;5008537;28;20325;-76
2021/03/20 00:22:26;;;;;;;10.20;6.70;;;0.50;99.90;;;;;;5014964;28;20394;-76
2021/03/20 00:24:52;;;;;;;9.48;6.95;;;0.50;99.90;;;;;;5014661;28;20029;-75
2021/03/20 00:27:17;;;;;;;13.02;7.68;;;0.50;99.90;;;;;;5006835;28;20035;-75
2021/03/20 00:29:43;;;;;;;7.93;6.32;;;0.50;99.90;;;;;;5015278;28;20026;-73
2021/03/20 00:32:09;;;;;;;8.50;7.15;;;0.50;99.90;;;;;;5001476;28;20430;-75
2021/03/20 00:34:34;;;;;;;12.40;7.53;;;0.50;99.90;;;;;;4996270;28;20026;-75
2021/03/20 00:37:01;;;;;;;9.75;6.78;;;0.60;99.90;;;;;;4998254;28;20023;-74
2021/03/20 00:39:27;;;;;;;8.98;7.13;;;0.60;99.90;;;;;;4996890;28;20030;-75
2021/03/20 00:41:52;;;;;;;9.93;6.35;;;0.60;99.90;;;;;;5007197;28;20162;-74
2021/03/20 00:44:18;;;;;;;10.50;6.32;;;0.50;99.90;;;;;;5006979;28;20030;-75
2021/03/20 00:46:43;;;;;;;8.38;6.55;;;0.40;99.90;;;;;;5010138;28;20028;-75
2021/03/20 00:49:09;;;;;;;10.63;6.88;;;0.50;99.90;;;;;;5020008;28;20026;-76
2021/03/20 00:51:35;;;;;;;10.30;6.88;;;0.50;99.90;;;;;;5018718;28;20393;-74
2021/03/20 00:54:00;;;;;;;8.48;6.40;;;0.50;99.90;;;;;;5015294;28;20018;-76
2021/03/20 00:56:26;;;;;;;7.38;6.43;;;0.60;99.90;;;;;;5032399;28;20018;-77
2021/03/20 00:58:52;;;;;;;7.93;6.50;;;0.60;99.90;;;;;;5028861;28;20026;-77
2021/03/20 01:01:21;;;;;;;9.05;6.63;;;0.70;99.90;;;;;;5033403;28;20018;-79
2021/03/20 01:03:48;;;;;;;9.50;7.18;;;0.70;99.90;;;;;;5035764;28;20065;-78
2021/03/20 01:06:16;;;;;;;8.63;6.70;;;0.70;99.90;;;;;;5032675;28;20030;-75
2021/03/20 01:08:42;;;;;;;6.95;6.03;;;0.70;99.90;;;;;;5030778;28;20044;-77
2021/03/20 01:11:12;;;;;;;8.95;6.43;;;0.70;99.90;;;;;;5027466;28;20039;-76
2021/03/20 01:13:38;;;;;;;9.82;7.80;;;0.80;99.90;;;;;;5015468;28;20018;-75
2021/03/20 01:16:04;;;;;;;10.30;6.70;;;0.70;99.90;;;;;;5021390;28;20030;-77
2021/03/20 01:18:30;;;;;;;8.48;6.93;;;0.70;99.90;;;;;;5020817;28;20034;-75
2021/03/20 01:20:56;;;;;;;8.70;7.13;;;0.70;99.90;;;;;;5008457;28;20030;-76
2021/03/20 01:23:21;;;;;;;7.95;6.38;;;0.60;99.90;;;;;;5009885;28;20550;-75
2021/03/20 01:25:47;;;;;;;8.68;6.97;;;0.60;99.90;;;;;;5012628;28;20033;-76
2021/03/20 01:28:13;;;;;;;10.00;7.22;;;0.60;99.90;;;;;;5012776;28;20007;-75
2021/03/20 01:30:42;;;;;;;9.32;7.00;;;0.70;99.90;;;;;;5041066;23;20050;-73
2021/03/20 01:33:09;;;;;;;9.50;7.75;;;0.80;99.90;;;;;;4990076;28;20038;-73
2021/03/20 01:35:35;;;;;;;7.72;6.47;;;0.80;99.90;;;;;;4986301;28;20421;-73
2021/03/20 01:38:02;;;;;;;10.57;6.90;;;0.80;99.90;;;;;;4995632;28;20082;-74
2021/03/20 01:40:33;;;;;;;10.18;6.93;;;0.80;99.90;;;;;;4981279;28;20121;-74
2021/03/20 01:42:58;;;;;;;9.73;6.90;;;0.80;99.90;;;;;;4980488;28;20030;-72
2021/03/20 01:45:28;;;;;;;7.45;6.20;;;0.90;99.90;;;;;;4987068;28;20113;-72
2021/03/20 01:47:58;;;;;;;8.77;6.85;;;0.80;99.90;;;;;;4987148;28;20057;-72
2021/03/20 01:50:37;;;;;;;9.20;6.75;;;0.90;99.90;;;;;;4997174;28;20033;-73
2021/03/20 01:53:31;;;;;;;8.52;6.88;;;0.90;99.90;;;;;;4995693;28;20078;-73
2021/03/20 01:55:58;;;;;;;8.70;7.03;;;0.90;99.90;;;;;;5004358;28;20026;-73
2021/03/20 01:58:25;;;;;;;7.35;6.25;;;0.90;99.90;;;;;;4999861;28;20045;-73
2021/03/20 02:01:05;;;;;;;7.75;6.75;;;0.90;99.90;;;;;;4985817;28;20380;-73
2021/03/20 02:03:31;;;;;;;8.65;6.57;;;0.90;99.90;;;;;;4990013;28;20064;-73
2021/03/20 02:05:59;;;;;;;8.10;6.65;;;0.90;99.90;;;;;;4985097;28;20106;-73
2021/03/20 02:08:25;;;;;;;8.65;6.72;;;0.90;99.90;;;;;;4977504;28;20023;-73
2021/03/20 02:10:54;;;;;;;10.63;6.82;;;0.90;99.90;;;;;;4981648;28;20042;-68
2021/03/20 02:13:26;;;;;;;10.55;6.68;;;0.90;99.90;;;;;;4989819;28;20380;-72
2021/03/20 02:15:59;;;;;;;9.02;6.45;;;0.90;99.90;;;;;;4995770;28;20025;-73
2021/03/20 02:19:02;;;;;;;9.07;6.88;;;0.90;99.90;;;;;;4994657;28;20553;-72
2021/03/20 02:21:38;;;;;;;9.40;6.82;;;0.90;99.90;;;;;;4939459;28;20351;-74
2021/03/20 02:24:37;;;;;;;9.07;6.85;;;0.90;99.90;;;;;;4988512;28;20023;-73
2021/03/20 02:27:06;;;;;;;8.27;6.55;;;0.90;99.90;;;;;;4991025;28;22343;-72
2021/03/20 02:29:47;;;;;;;12.13;6.53;;;1.00;99.90;;;;;;4992333;28;20034;-72
2021/03/20 02:32:36;;;;;;;10.10;6.53;;;1.00;99.90;;;;;;4992216;28;20505;-72
2021/03/20 02:35:23;;;;;;;7.88;6.90;;;1.00;99.90;;;;;;4991286;28;20092;-72
2021/03/20 02:38:07;;;;;;;8.88;7.25;;;1.00;99.90;;;;;;4977302;28;20035;-72
2021/03/20 02:40:52;;;;;;;14.25;8.70;;;1.30;99.90;;;;;;4976033;28;20118;-73
2021/03/20 02:43:30;;;;;;;11.05;7.43;;;1.10;99.90;;;;;;4987087;28;20023;-72
2021/03/20 02:46:10;;;;;;;11.05;6.90;;;1.30;99.90;;;;;;4996325;28;20026;-73
2021/03/20 02:48:54;;;;;;;7.35;6.20;;;1.30;99.90;;;;;;4996453;28;20030;-72
2021/03/20 02:51:30;;;;;;;6.82;5.88;;;1.50;99.90;;;;;;4996459;28;20441;-73
2021/03/20 02:54:04;;;;;;;8.23;6.78;;;1.50;99.90;;;;;;4994788;28;20113;-73
2021/03/20 02:56:40;;;;;;;12.18;7.43;;;1.40;99.90;;;;;;4991854;28;20105;-73
2021/03/20 02:59:13;;;;;;;9.10;6.28;;;1.40;99.90;;;;;;4992290;28;20052;-73
2021/03/20 03:01:42;;;;;;;6.80;6.10;;;1.30;99.90;;;;;;4990214;28;20072;-74
2021/03/20 03:04:12;;;;;;;10.18;7.28;;;1.20;99.90;;;;;;4992416;28;20027;-72
2021/03/20 03:07:00;;;;;;;9.43;7.60;;;1.10;99.90;;;;;;4987070;28;20129;-73
2021/03/20 03:09:38;;;;;;;8.00;6.78;;;1.10;99.90;;;;;;4992126;28;20034;-71
2021/03/20 03:12:06;;;;;;;7.00;6.30;;;1.40;99.90;;;;;;4987777;28;20050;-72
2021/03/20 03:14:50;;;;;;;9.90;6.03;;;1.40;99.90;;;;;;4994741;28;20371;-71
2021/03/20 03:17:17;;;;;;;7.97;5.97;;;1.50;99.90;;;;;;4985977;28;20027;-71
2021/03/20 03:20:05;;;;;;;7.90;6.57;;;1.60;99.90;;;;;;4993079;28;20072;-71
2021/03/20 03:22:39;;;;;;;8.50;6.72;;;1.60;99.90;;;;;;4984592;28;20546;-70
2021/03/20 03:25:10;;;;;;;7.95;6.63;;;1.50;99.90;;;;;;4989843;28;20030;-71
2021/03/20 03:27:37;;;;;;;;;;;1.30;99.90;;;;;;4991367;28;20022;-73
2021/03/20 03:30:09;;;;;;;7.72;6.65;;;1.30;99.90;;;;;;4986892;28;19933;-72
2021/03/20 03:32:43;;;;;;;7.30;6.60;;;1.20;99.90;;;;;;4974858;28;20035;-71
2021/03/20 03:35:23;;;;;;;8.00;7.05;;;1.40;99.90;;;;;;4976197;28;20219;-70
2021/03/20 03:37:57;;;;;;;7.13;6.30;;;1.50;99.90;;;;;;4974769;28;20446;-72
2021/03/20 03:40:54;;;;;;;6.97;6.05;;;1.50;99.90;;;;;;4991191;28;20288;-72
2021/03/20 03:43:20;;;;;;;7.55;6.75;;;1.40;99.90;;;;;;4987693;28;20422;-72
2021/03/20 03:45:46;;;;;;;7.03;6.22;;;1.40;99.90;;;;;;4982186;28;20027;-72
2021/03/20 03:48:14;;;;;;;9.27;6.45;;;1.40;99.90;;;;;;4975931;28;20100;-73
2021/03/20 03:50:42;;;;;;;7.22;5.78;;;1.20;99.90;;;;;;4983346;28;20030;-72
2021/03/20 03:53:09;;;;;;;8.18;6.90;;;1.10;99.90;;;;;;4986899;28;20085;-72
2021/03/20 03:55:36;;;;;;;9.30;6.47;;;1.10;99.90;;;;;;4988457;28;20054;-73
2021/03/20 03:58:28;;;;;;;10.15;6.63;;;1.20;99.90;;;;;;4987032;28;20379;-71
2021/03/20 04:01:16;;;;;;;7.53;6.57;;;1.30;99.90;;;;;;4981925;28;20080;-72
2021/03/20 04:04:03;;;;;;;7.03;6.32;;;1.20;99.90;;;;;;4993371;28;20033;-72
2021/03/20 04:06:53;;;;;;;9.45;6.28;;;1.20;99.90;;;;;;4991482;28;20026;-72
2021/03/20 04:09:34;;;;;;;7.18;6.28;;;1.10;99.90;;;;;;4977592;28;20125;-71
2021/03/20 04:12:05;;;;;;;8.25;7.45;;;1.00;99.90;;;;;;4987737;28;20128;-72
2021/03/20 04:14:47;;;;;;;6.75;5.45;;;1.00;99.90;;;;;;4987506;28;20030;-72
2021/03/20 04:17:34;;;;;;;7.43;6.45;;;1.00;99.90;;;;;;4983623;28;20031;-70
2021/03/20 04:20:03;;;;;;;7.93;6.35;;;1.20;99.90;;;;;;4978601;28;20489;-71
2021/03/20 04:22:57;;;;;;;6.65;5.95;;;1.10;99.90;;;;;;4973969;28;20035;-71
2021/03/20 04:25:26;;;;;;;7.10;6.40;;;1.10;99.90;;;;;;4989550;28;20030;-70
2021/03/20 04:28:02;;;;;;;9.07;7.20;;;1.00;99.90;;;;;;4986815;28;20018;-71
2021/03/20 04:30:30;;;;;;;7.85;7.05;;;1.00;99.90;;;;;;4994707;28;20498;-72
2021/03/20 04:33:04;;;;;;;8.70;6.78;;;0.90;99.90;;;;;;4994205;28;20394;-72
2021/03/20 04:35:55;;;;;;;7.53;6.72;;;1.10;99.90;;;;;;4989852;28;20086;-72
2021/03/20 04:38:21;;;;;;;6.80;6.10;;;0.90;99.90;;;;;;4963319;28;20046;-71
2021/03/20 04:40:54;;;;;;;9.20;7.32;;;0.80;99.90;;;;;;4994441;28;20486;-72
2021/03/20 04:43:23;;;;;;;9.90;7.07;;;0.70;99.90;;;;;;4986064;28;20031;-73
2021/03/20 04:46:05;;;;;;;7.80;7.00;;;0.70;99.90;;;;;;4985940;28;20037;-72
2021/03/20 04:48:39;;;;;;;8.60;7.75;;;0.70;99.90;;;;;;4975639;28;20541;-72
2021/03/20 04:51:21;;;;;;;9.18;7.38;;;0.60;99.90;;;;;;4979375;28;20505;-73
2021/03/20 04:53:49;;;;;;;6.50;5.80;;;0.70;99.90;;;;;;4982398;28;20077;-71
2021/03/20 04:56:18;;;;;;;7.88;7.00;;;0.60;99.90;;;;;;4992171;28;20382;-70
2021/03/20 04:58:47;;;;;;;7.65;6.88;;;0.40;99.90;;;;;;4984265;28;20499;-71
2021/03/20 05:01:22;;;;;;;8.35;7.10;;;0.30;99.90;;;;;;4976500;28;20503;-71
2021/03/20 05:03:53;;;;;;;8.52;7.60;;;0.30;99.90;;;;;;4974996;28;20027;-72
2021/03/20 05:06:23;;;;;;;8.20;7.03;;;0.30;99.90;;;;;;4988227;28;20568;-72
2021/03/20 05:08:59;;;;;;;9.27;7.30;;;0.20;99.90;;;;;;4986839;28;20030;-73
2021/03/20 05:11:33;;;;;;;8.85;7.15;;;0.20;99.90;;;;;;4992982;28;20315;-72
2021/03/20 05:14:10;;;;;;;8.07;7.18;;;0.30;99.90;;;;;;4985713;28;20047;-73
2021/03/20 05:16:47;;;;;;;9.50;7.47;;;0.40;99.90;;;;;;4993412;28;20482;-74
2021/03/20 05:19:13;;;;;;;9.00;7.20;;;0.40;99.90;;;;;;4994277;28;20084;-72
2021/03/20 05:21:41;;;;;;;7.38;6.22;;;0.30;99.90;;;;;;4983062;28;20019;-72
2021/03/20 05:24:11;;;;;;;9.27;6.95;;;0.20;99.90;;;;;;4981536;28;20084;-71
2021/03/20 05:26:37;;;;;;;7.72;6.88;;;0.20;99.90;;;;;;4992661;28;20438;-72
2021/03/20 05:29:03;;;;;;;8.88;7.40;;;0.20;99.90;;;;;;4984770;28;20027;-72
2021/03/20 05:31:31;;;;;;;10.65;7.32;;;0.30;99.90;;;;;;4974356;28;20035;-73
2021/03/20 05:33:57;;;;;;;10.27;7.18;;;0.30;99.90;;;;;;4976824;28;20062;-71
2021/03/20 05:36:23;;;;;;;8.68;7.05;;;0.30;99.90;;;;;;4989788;28;20026;-72
2021/03/20 05:38:50;;;;;;;8.27;7.47;;;0.30;99.90;;;;;;4992684;28;20390;-72
2021/03/20 05:41:40;;;;;;;13.32;8.82;;;0.40;99.90;;;;;;4981285;28;20033;-71
2021/03/20 05:44:20;;;;;;;7.93;7.03;;;0.40;99.90;;;;;;4991178;28;20031;-71
2021/03/20 05:47:33;;;;;;;8.20;7.10;;;0.60;99.90;;;;;;4980558;28;20446;-72
2021/03/20 05:50:28;;;;;;;8.70;7.25;;;0.50;99.90;;;;;;4956475;28;20027;-73
2021/03/20 05:53:19;;;;;;;7.47;6.72;;;0.60;99.90;;;;;;4980323;28;20053;-72
2021/03/20 05:55:56;;;;;;;8.20;7.40;;;0.60;99.90;;;;;;4980361;28;20027;-72
2021/03/20 05:58:35;;;;;;;10.95;6.43;;;0.70;99.90;;;;;;4975121;28;20027;-72
2021/03/20 06:01:18;;;;;;;7.45;6.63;;;0.80;99.90;;;;;;4977964;28;20507;-72
2021/03/20 06:04:20;;;;;;;8.73;6.55;;;0.80;99.90;;;;;;4981618;28;20055;-70
2021/03/20 06:06:46;;;;;;;7.70;6.78;;;0.70;99.90;;;;;;4987629;28;20390;-72
2021/03/20 06:09:28;;;;;;;6.05;5.43;;;0.70;99.90;;;;;;4989106;28;20127;-73
2021/03/20 06:12:10;;;;;;;7.85;5.97;;;0.70;99.90;;;;;;4985020;28;20628;-72
2021/03/20 06:14:49;;;;;;;5.93;5.32;;;0.70;99.90;;;;;;4986637;28;20050;-72
2021/03/20 06:17:46;;;;;;;6.90;5.88;;;0.80;99.90;;;;;;4999815;28;20030;-72
2021/03/20 06:20:31;;;;;;;8.00;5.50;;;0.80;99.90;;;;;;4998581;28;20030;-71
2021/03/20 06:23:18;;;;;;;6.85;5.68;;;0.90;99.90;;;;;;4989320;28;20023;-71
2021/03/20 06:26:05;;;;;;;5.55;5.05;;;0.80;99.90;;;;;;4985007;28;20026;-73
2021/03/20 06:28:44;;;;;;;7.35;5.35;;;0.90;99.90;;;;;;4985626;28;20061;-72
2021/03/20 06:31:20;;;;;;;5.50;4.88;;;0.90;99.90;;;;;;4988090;28;20045;-71
2021/03/20 06:33:54;;;;;;;5.88;5.03;;;1.10;99.90;;;;;;4975859;28;20031;-72
2021/03/20 06:36:33;;;;;;;6.30;5.40;;;1.30;99.90;;;;;;4983321;28;20031;-71
2021/03/20 06:39:25;;;;;;;5.22;4.55;;;1.40;99.90;;;;;;4980670;28;20023;-71
2021/03/20 06:41:54;;;;;;;5.47;4.97;;;1.50;99.90;;;;;;4987687;28;20022;-72
2021/03/20 06:44:23;;;;;;;5.10;4.53;;;1.40;99.90;;;;;;4987123;28;20396;-71
2021/03/20 06:46:50;;;;;;;9.43;4.85;;;1.40;99.90;;;;;;4996412;28;20022;-72
2021/03/20 06:49:29;;;;;;;6.97;4.38;;;1.50;99.90;;;;;;4987454;28;20022;-72
2021/03/20 06:51:59;;;;;;;4.57;4.15;;;1.50;99.90;;;;;;4995885;28;20022;-71
2021/03/20 06:54:27;;;;;;;5.75;4.60;;;1.50;99.90;;;;;;4979911;28;20382;-73
2021/03/20 06:56:52;;;;;;;5.10;4.57;;;1.50;99.90;;;;;;4984403;28;20101;-72
2021/03/20 06:59:22;;;;;;;5.18;3.88;;;1.50;99.90;;;;;;4985798;28;20513;-73
2021/03/20 07:02:10;;;;;;;4.53;4.10;;;1.60;99.90;;;;;;4976642;28;20090;-71
2021/03/20 07:05:02;;;;;;;6.32;4.25;;;1.60;97.80;;;;;;4977580;28;20023;-71
2021/03/20 07:07:35;;;;;;;3.70;3.33;;;1.60;77.60;;;;;;4966918;28;20043;-73
2021/03/20 07:10:06;;;;;;;4.43;4.03;;;1.60;92.40;;;;;;4976920;28;20058;-73
2021/03/20 07:12:32;;;;;;;6.22;3.50;;;1.80;26.80;;;;;;4984928;28;20419;-71
2021/03/20 07:15:00;;;;;;;4.03;2.63;;;1.80;21.20;;;;;;4986400;28;20026;-72
2021/03/20 07:17:37;;;;;;;4.60;3.63;;;1.90;1.00;;;;;;4996194;28;20029;-71
2021/03/20 07:20:17;;;;;;;5.78;3.83;;;1.70;1.00;;;;;;5004854;28;20026;-70
2021/03/20 07:22:44;;;;;;;6.75;4.53;;;1.70;1.00;;;;;;5003401;28;20040;-71
2021/03/20 07:25:25;;;;;;;4.90;4.45;;;1.70;1.00;;;;;;4996395;28;20157;-71
2021/03/20 07:27:53;;;;;;;5.35;4.85;;;1.80;1.00;;;;;;4986773;28;20042;-73
2021/03/20 07:30:49;;;;;;;4.78;3.50;;;1.80;1.00;;;;;;4991972;28;20034;-71
2021/03/20 07:33:33;;;;;;;3.72;3.42;;;1.90;1.00;;;;;;5014559;23;20050;-74
2021/03/20 07:36:31;;;;;;;3.83;3.53;;;2.10;1.00;;;;;;4978552;28;20062;-74
2021/03/20 07:39:26;;;;;;;4.88;3.70;;;2.30;99.90;;;;;;4980344;28;20082;-73
2021/03/20 07:42:06;;;;;;;8.45;3.67;;;2.50;99.90;;;;;;4993337;28;20034;-75
2021/03/20 07:44:55;;;;;;;3.78;3.40;;;2.50;99.90;;;;;;4997929;28;20035;-74
2021/03/20 07:47:25;;;;;;;3.67;3.38;;;2.60;99.90;;;;;;4998641;28;20037;-73
2021/03/20 07:50:21;;;;;;;3.43;3.13;;;2.50;99.90;;;;;;4998530;28;20069;-74
2021/03/20 07:53:08;;;;;;;4.00;3.53;;;2.50;99.90;;;;;;4995997;28;20298;-74
2021/03/20 07:55:55;;;;;;;6.60;3.75;;;2.50;99.90;;;;;;4983243;28;20030;-74
2021/03/20 07:58:43;;;;;;;4.03;3.63;;;2.70;1.00;;;;;;4985985;28;20057;-73
2021/03/20 08:01:18;;;;;;;3.78;3.35;;;2.90;99.90;;;;;;4987106;28;20033;-72
2021/03/20 08:03:58;;;;;;;3.85;3.45;;;2.70;99.90;;;;;;4986799;28;20114;-73
2021/03/20 08:06:29;;;;;;;4.30;3.55;;;2.80;99.90;;;;;;4987258;28;20443;-72
2021/03/20 08:09:11;;;;;;;3.88;3.35;;;2.90;99.90;;;;;;4977476;28;20118;-74
2021/03/20 08:11:37;;;;;;;5.57;3.25;;;2.70;99.90;;;;;;4996239;28;20461;-74
2021/03/20 08:14:12;;;;;;;5.05;2.67;;;2.70;99.90;;;;;;4990186;28;20350;-76
2021/03/20 08:16:37;;;;;;;4.07;3.17;;;2.80;1.00;;;;;;4989687;28;20026;-75
2021/03/20 08:19:03;;;;;;;4.28;3.67;;;2.90;1.00;;;;;;4996398;28;20032;-74
2021/03/20 08:21:49;;;;;;;4.63;3.15;;;2.90;99.90;;;;;;4987559;28;20038;-74
2021/03/20 08:24:14;;;;;;;3.97;2.67;;;3.10;28.60;;;;;;4956654;28;20053;-76
2021/03/20 08:26:46;;;;;;;3.08;2.85;;;3.20;1.00;;;;;;4986047;28;20026;-73
2021/03/20 08:29:39;;;;;;;3.58;2.70;;;3.20;99.90;;;;;;4980856;28;20027;-74
2021/03/20 08:32:25;;;;;;;2.70;2.42;;;3.20;99.90;;;;;;4993345;28;20030;-74
2021/03/20 08:35:03;;;;;;;3.05;2.72;;;2.90;99.90;;;;;;4988607;28;20030;-73
2021/03/20 08:37:54;;;;;;;2.97;2.67;;;2.50;1.00;;;;;;5006130;28;20019;-75
2021/03/20 08:40:41;;;;;;;3.97;3.13;;;2.40;99.90;;;;;;5014852;28;20042;-74
2021/03/20 08:43:44;;;;;;;4.00;2.83;;;2.00;92.80;;;;;;5006867;28;20061;-74
2021/03/20 08:46:16;;;;;;;6.15;3.17;;;1.70;99.90;;;;;;4997350;28;20042;-73
2021/03/20 08:48:48;;;;;;;3.05;2.63;;;1.80;1.00;;;;;;5010898;28;20027;-75
2021/03/20 08:51:36;;;;;;;2.92;2.65;;;2.10;1.00;;;;;;4998565;28;20038;-74
2021/03/20 08:54:06;;;;;;;5.30;2.72;;;2.00;1.00;;;;;;4992891;28;20459;-73
2021/03/20 08:57:10;;;;;;;2.47;2.27;;;2.10;99.90;;;;;;4993228;28;20057;-73
2021/03/20 08:59:43;;;;;;;3.33;2.30;;;2.00;21.80;;;;;;4978084;28;20262;-75
2021/03/20 09:02:24;;;;;;;3.85;3.55;;;2.20;1.00;;;;;;4982198;28;20037;-73
2021/03/20 09:05:03;;;;;;;3.38;2.28;;;2.40;99.90;;;;;;4991859;28;20018;-74
2021/03/20 09:07:41;;;;;;;3.53;2.08;;;2.30;79.90;;;;;;5009047;28;20523;-74
2021/03/20 09:10:22;;;;;;;4.50;3.13;;;1.80;1.00;;;;;;4986454;28;20175;-74
2021/03/20 09:13:01;;;;;;;3.17;2.88;;;2.30;99.90;;;;;;4984964;28;20499;-75
2021/03/20 09:15:30;;;;;;;3.05;2.50;;;2.20;1.00;;;;;;4980417;28;20045;-74
2021/03/20 09:18:01;;;;;;;3.08;2.80;;;2.30;99.90;;;;;;4985002;28;20048;-74
2021/03/20 09:20:49;;;;;;;4.55;2.20;;;2.20;26.10;;;;;;4985068;28;20030;-76
2021/03/20 09:23:43;;;;;;;2.45;2.22;;;1.90;1.00;;;;;;4981789;28;20043;-75
2021/03/20 09:26:36;;;;;;;2.95;2.20;;;2.10;99.90;;;;;;4990749;28;20034;-75
2021/03/20 09:29:05;;;;;;;2.95;2.63;;;2.20;99.90;;;;;;4992764;28;20030;-74
2021/03/20 09:31:31;;;;;;;3.00;2.20;;;2.90;99.90;;;;;;4994997;28;20109;-75
2021/03/20 09:34:18;;;;;;;2.38;1.63;;;3.60;99.90;;;;;;4995858;28;20053;-74
2021/03/20 09:36:48;;;;;;;2.35;1.50;;;3.50;1.00;;;;;;5002071;28;20049;-74
2021/03/20 09:39:45;;;;;;;2.42;1.50;;;4.30;99.90;;;;;;4993983;28;20018;-74
2021/03/20 09:42:29;;;;;;;2.40;1.38;;;4.40;99.90;;;;;;4996111;28;20027;-75
2021/03/20 09:44:59;;;;;;;1.05;0.80;;;4.20;99.90;;;;;;5005593;28;20470;-74
2021/03/20 09:47:28;;;;;;;1.98;1.17;;;4.30;99.90;;;;;;4997091;28;20066;-74
2021/03/20 09:49:55;;;;;;;2.40;1.55;;;4.30;99.90;;;;;;4996251;28;20022;-74
2021/03/20 09:52:39;;;;;;;3.25;1.90;;;4.40;99.90;;;;;;5002751;28;20089;-73
2021/03/20 09:55:30;;;;;;;2.95;1.85;;;4.50;99.90;;;;;;5016373;28;20006;-74
2021/03/20 09:57:57;;;;;;;2.47;2.10;;;4.40;99.90;;;;;;5013368;28;20014;-75
2021/03/20 10:00:44;;;;;;;2.53;2.33;;;4.70;99.90;;;;;;5010848;28;20046;-75
2021/03/20 10:03:11;;;;;;;7.72;3.03;;;5.00;99.90;;;;;;5005841;28;20077;-75
2021/03/20 10:05:37;;;;;;;3.60;2.03;;;5.30;99.90;;;;;;4998057;28;20034;-76
2021/03/20 10:08:23;;;;;;;2.22;2.03;;;4.80;99.90;;;;;;4989239;28;20049;-75
2021/03/20 10:10:51;;;;;;;4.60;1.80;;;3.60;99.90;;;;;;4986910;28;20102;-76
2021/03/20 10:13:22;;;;;;;3.95;2.17;;;3.70;99.90;;;;;;4999039;28;20066;-73
2021/03/20 10:15:58;;;;;;;3.58;2.30;;;4.00;99.90;;;;;;4993645;28;20027;-75
2021/03/20 10:18:34;;;;;;;3.53;2.03;;;4.30;99.90;;;;;;4998749;28;20029;-74
2021/03/20 10:21:17;;;;;;;3.58;2.50;;;4.80;99.90;;;;;;4993439;28;20422;-74
2021/03/20 10:23:46;;;;;;;3.10;2.00;;;5.40;99.90;;;;;;4991633;28;20040;-75
2021/03/20 10:26:59;;;;;;;1.50;1.40;;;5.00;99.90;;;;;;4995525;28;20066;-74
2021/03/20 10:29:30;;;;;;;2.83;2.47;;;5.10;99.90;;;;;;4954624;29;20039;-74
2021/03/20 10:32:07;;;;;;;2.75;2.28;;;4.80;99.90;;;;;;4940795;29;20471;-73
2021/03/20 10:34:49;;;;;;;2.30;2.08;;;5.00;99.90;;;;;;4979312;28;20026;-74
2021/03/20 10:37:16;;;;;;;2.53;1.90;;;4.70;99.90;;;;;;4995162;28;20463;-75
2021/03/20 10:39:44;;;;;;;3.92;2.38;;;4.70;99.90;;;;;;4983650;28;20027;-74
2021/03/20 10:42:25;;;;;;;2.13;1.83;;;4.60;99.90;;;;;;4991099;28;20438;-76
2021/03/20 10:44:56;;;;;;;1.98;1.80;;;4.50;99.90;;;;;;4997992;28;20031;-74
2021/03/20 10:47:28;;;;;;;2.10;1.90;;;4.60;99.90;;;;;;4988841;28;20031;-74
2021/03/20 10:50:17;;;;;;;2.00;1.80;;;4.20;99.90;;;;;;4976940;28;20039;-72
2021/03/20 10:52:43;;;;;;;2.40;2.10;;;4.50;99.90;;;;;;4979717;28;20044;-76
2021/03/20 10:55:28;;;;;;;2.22;1.83;;;4.10;99.90;;;;;;4999346;28;20054;-75
2021/03/20 10:57:54;;;;;;;2.55;2.00;;;4.40;99.90;;;;;;4978890;28;20085;-72
2021/03/20 11:00:30;;;;;;;2.78;1.85;;;4.40;99.90;;;;;;4977499;28;20027;-74
2021/03/20 11:03:14;;;;;;;2.72;2.30;;;4.30;99.90;;;;;;4984652;28;20026;-75
2021/03/20 11:05:42;;;;;;;3.15;1.95;;;4.20;99.90;;;;;;4979921;28;20085;-75
2021/03/20 11:08:20;;;;;;;3.15;2.33;;;4.00;99.90;;;;;;4983820;28;20027;-74
2021/03/20 11:10:50;;;;;;;2.92;2.40;;;3.80;99.90;;;;;;4988346;28;20026;-73
2021/03/20 11:13:15;;;;;;;4.43;2.08;;;4.30;99.90;;;;;;4990452;28;20026;-73
2021/03/20 11:15:43;;;;;;;3.38;2.65;;;4.40;99.90;;;;;;4997286;28;20031;-73
2021/03/20 11:18:21;;;;;;;2.35;1.98;;;4.60;99.90;;;;;;5008385;28;20014;-73
2021/03/20 11:20:47;;;;;;;8.27;2.22;;;4.40;99.90;;;;;;5012812;28;20015;-75
2021/03/20 11:23:36;;;;;;;3.05;1.90;;;4.70;99.90;;;;;;4984740;28;20027;-78
2021/03/20 11:26:23;;;;;;;2.65;1.98;;;4.50;99.90;;;;;;4977978;28;20080;-79
2021/03/20 11:28:51;;;;;;;2.72;2.03;;;4.70;99.90;;;;;;5001348;28;20042;-78
2021/03/20 11:31:18;;;;;;;2.55;2.25;;;4.70;99.90;;;;;;4991653;28;20029;-78
2021/03/20 11:33:45;;;;;;;2.95;2.25;;;5.30;99.90;;;;;;4996991;28;20019;-80
2021/03/20 11:36:25;;;;;;;2.33;2.00;;;5.10;99.90;;;;;;4997271;28;20027;-74
2021/03/20 11:38:51;;;;;;;3.42;1.90;;;5.10;99.90;;;;;;4990038;28;20026;-74
2021/03/20 11:41:19;;;;;;;2.38;2.17;;;4.80;99.90;;;;;;5000360;28;20042;-76
2021/03/20 11:43:57;;;;;;;2.75;2.55;;;4.60;99.90;;;;;;5006623;28;20034;-79
2021/03/20 11:46:45;;;;;;;7.15;3.28;;;4.80;99.90;;;;;;5013047;28;20007;-77
2021/03/20 11:49:42;;;;;;;2.65;2.45;;;4.90;99.90;;;;;;5015440;28;20034;-79
2021/03/20 11:52:48;;;;;;;2.70;2.50;;;5.20;99.90;;;;;;4990823;28;20118;-79
2021/03/20 12:10:28;;;;;;;2.00;1.90;;;5.10;99.90;;;;;;4875241;29;20080;-79
2021/03/20 12:13:08;;;;;;;2.43;2.23;;;5.40;99.90;;;;;;4900484;29;20040;-79
2021/03/20 12:15:59;;;;;;;3.55;2.95;;;6.00;99.90;;;;;;4941071;29;20035;-79
2021/03/20 12:18:46;;;;;;;2.60;2.40;;;6.00;99.90;;;;;;4972175;28;20070;-80
2021/03/20 12:24:51;;;;;;;4.00;2.80;;;6.00;99.90;;;;;;4959966;29;20054;-77
2021/03/20 12:27:56;;;;;;;3.70;2.70;;;5.80;99.90;;;;;;4921468;29;20028;-78
2021/03/20 12:30:45;;;;;;;2.58;2.38;;;5.70;99.90;;;;;;4992141;28;20098;-80
2021/03/20 12:33:45;;;;;;;2.97;2.65;;;5.30;99.90;;;;;;5011346;28;20069;-80
2021/03/20 12:36:30;;;;;;;2.80;2.58;;;5.00;99.90;;;;;;5011005;28;20027;-77
2021/03/20 12:39:13;;;;;;;4.32;2.58;;;5.30;99.90;;;;;;5003950;28;20050;-76
2021/03/20 12:41:53;;;;;;;3.08;2.42;;;5.40;99.90;;;;;;4998088;28;20031;-78
2021/03/20 12:44:43;;;;;;;2.67;2.47;;;5.30;99.90;;;;;;5002839;28;20072;-77
2021/03/20 12:47:40;;;;;;;3.97;2.58;;;5.20;99.90;;;;;;5012424;28;20030;-80
2021/03/20 12:50:28;;;;;;;3.00;2.42;;;5.10;99.90;;;;;;5003475;28;20050;-79
2021/03/20 12:53:17;;;;;;;2.70;2.50;;;5.10;99.90;;;;;;5000320;28;20045;-79
2021/03/20 12:55:49;;;;;;;4.00;2.63;;;5.70;99.90;;;;;;5007033;28;20041;-79
2021/03/20 12:58:23;;;;;;;2.85;2.47;;;6.10;99.90;;;;;;5005788;28;20157;-78
2021/03/20 13:00:57;;;;;;;3.25;2.40;;;6.20;99.90;;;;;;4990539;28;20033;-81
2021/03/20 13:03:47;;;;;;;6.03;4.00;;;6.10;99.90;;;;;;4991489;28;20053;-81
2021/03/20 13:06:39;;;;;;;3.30;2.75;;;6.00;99.90;;;;;;5002948;28;20039;-80
2021/03/20 13:09:24;;;;;;;3.20;2.90;;;5.80;99.90;;;;;;5002709;28;20106;-78
2021/03/20 13:11:59;;;;;;;3.13;2.70;;;5.60;99.90;;;;;;4996376;28;20030;-77
2021/03/20 13:14:28;;;;;;;2.83;2.63;;;5.50;99.90;;;;;;4994613;28;20094;-76
2021/03/20 13:16:56;;;;;;;3.65;3.08;;;5.70;99.90;;;;;;4995630;28;20187;-82
2021/03/20 13:19:25;;;;;;;3.08;2.53;;;5.70;99.90;;;;;;4880431;28;20051;-82
2021/03/20 13:21:56;;;;;;;3.28;2.97;;;6.00;99.90;;;;;;4900076;29;20028;-80
2021/03/20 13:24:31;;;;;;;2.95;2.35;;;5.90;99.90;;;;;;4906945;29;20145;-78
2021/03/20 13:27:23;;;;;;;3.58;2.55;;;6.10;99.90;;;;;;4906011;29;20113;-82
2021/03/20 13:30:03;;;;;;;2.53;2.33;;;5.50;99.90;;;;;;4893131;29;20054;-79
2021/03/20 13:32:29;;;;;;;3.20;2.90;;;5.30;99.90;;;;;;4959237;23;20136;-76
2021/03/20 13:34:57;;;;;;;4.22;2.63;;;4.70;99.90;;;;;;5016631;28;20058;-77
2021/03/20 13:37:23;;;;;;;2.95;2.65;;;5.00;99.90;;;;;;4999033;28;20056;-81
2021/03/20 13:39:49;;;;;;;2.70;2.50;;;5.40;99.90;;;;;;5015885;28;20029;-77
2021/03/20 13:42:15;;;;;;;4.03;3.00;;;5.60;99.90;;;;;;4997338;28;20034;-79
2021/03/20 13:44:41;;;;;;;3.00;2.80;;;5.70;99.90;;;;;;4976720;28;20027;-76
2021/03/20 13:47:06;;;;;;;8.15;3.13;;;5.90;99.90;;;;;;4988123;28;20034;-77
2021/03/20 13:49:32;;;;;;;3.25;2.95;;;5.60;99.90;;;;;;4976895;28;20026;-78
2021/03/20 13:51:59;;;;;;;2.60;2.40;;;5.80;99.90;;;;;;4976198;28;20482;-76
2021/03/20 13:54:28;;;;;;;4.53;2.40;;;6.30;99.90;;;;;;4986514;28;20073;-76
2021/03/20 13:56:54;;;;;;;4.13;2.42;;;6.70;99.90;;;;;;4988286;28;20030;-76
2021/03/20 13:59:20;;;;;;;2.75;2.45;;;6.10;94.20;;;;;;5007431;28;20399;-77
2021/03/20 14:01:46;;;;;;;3.50;3.20;;;6.20;92.60;;;;;;4993887;28;20051;-77